createdAt,value
2019-02-22T00:00:16.722Z,47.20
2019-02-22T00:01:16.681Z,49.70
2019-02-22T00:02:16.646Z,50.90
2019-02-22T00:03:16.632Z,48.30
2019-02-22T00:04:16.623Z,51.80
2019-02-22T00:05:16.678Z,52.80
2019-02-22T00:06:16.618Z,54.90
2019-02-22T00:07:16.588Z,49.40
2019-02-22T00:08:16.578Z,46.50
2019-02-22T00:09:16.568Z,49.40
2019-02-22T00:10:16.555Z,50.10
2019-02-22T00:11:16.571Z,52.30
2019-02-22T00:12:16.539Z,51.10
2019-02-22T00:13:16.522Z,49.30
2019-02-22T00:14:16.515Z,50.20
2019-02-22T00:15:16.505Z,48.90
2019-02-22T00:16:16.486Z,50.50
2019-02-22T00:17:16.492Z,50.10
2019-02-22T00:18:16.461Z,52.70
2019-02-22T00:19:16.450Z,52.60
2019-02-22T00:20:16.439Z,51.70
2019-02-22T00:21:16.448Z,52.30
2019-02-22T00:22:16.421Z,51.20
2019-02-22T00:23:16.410Z,50.50
2019-02-22T00:24:16.394Z,51.60
2019-02-22T00:25:16.382Z,53.00
2019-02-22T00:26:16.413Z,49.00
2019-02-22T00:27:16.359Z,53.70
2019-02-22T00:28:16.347Z,51.20
2019-02-22T00:29:16.349Z,52.30
2019-02-22T00:30:16.325Z,53.50
2019-02-22T00:31:16.314Z,52.40
2019-02-22T00:32:16.320Z,50.50
2019-02-22T00:33:16.297Z,50.70
2019-02-22T00:34:16.279Z,53.30
2019-02-22T00:35:16.315Z,52.10
2019-02-22T00:36:16.284Z,49.90
2019-02-22T00:37:16.355Z,51.80
2019-02-22T00:38:16.232Z,49.90
2019-02-22T00:39:16.222Z,48.80
2019-02-22T00:40:16.212Z,50.90
2019-02-22T00:41:16.200Z,54.10
2019-02-22T00:42:16.209Z,51.80
2019-02-22T00:43:16.177Z,54.00
2019-02-22T00:44:16.167Z,50.40
2019-02-22T00:45:16.156Z,49.30
2019-02-22T00:46:16.141Z,50.80
2019-02-22T00:47:16.151Z,49.60
2019-02-22T00:48:16.125Z,48.20
2019-02-22T00:49:16.109Z,50.00
2019-02-22T00:50:16.096Z,50.30
2019-02-22T00:51:16.086Z,48.10
2019-02-22T00:52:16.098Z,47.10
2019-02-22T00:53:16.064Z,48.30
2019-02-22T00:54:16.062Z,49.60
2019-02-22T00:55:16.042Z,48.40
2019-02-22T00:56:16.026Z,51.20
2019-02-22T00:57:16.023Z,47.30
2019-02-22T00:58:16.033Z,47.00
2019-02-22T00:59:16.000Z,47.80
2019-02-22T01:00:15.986Z,48.90
2019-02-22T01:01:15.983Z,52.70
2019-02-22T01:02:15.961Z,49.50
2019-02-22T01:03:15.967Z,46.10
2019-02-22T01:04:15.938Z,46.80
2019-02-22T01:05:15.927Z,47.20
2019-02-22T01:06:15.925Z,49.70
2019-02-22T01:07:15.903Z,46.90
2019-02-22T01:08:15.983Z,46.50
2019-02-22T01:09:15.884Z,48.90
2019-02-22T01:10:15.870Z,46.50
2019-02-22T01:11:15.856Z,45.30
2019-02-22T01:12:15.859Z,47.40
2019-02-22T01:13:15.852Z,46.80
2019-02-22T01:14:15.824Z,46.00
2019-02-22T01:15:15.811Z,42.70
2019-02-22T01:16:15.802Z,44.90
2019-02-22T01:17:15.789Z,48.10
2019-02-22T01:18:15.803Z,47.90
2019-02-22T01:19:15.768Z,47.30
2019-02-22T01:20:15.755Z,44.20
2019-02-22T01:21:15.744Z,46.60
2019-02-22T01:22:15.735Z,43.80
2019-02-22T01:23:15.721Z,45.80
2019-02-22T01:24:15.728Z,45.30
2019-02-22T01:25:15.697Z,41.40
2019-02-22T01:26:15.691Z,49.70
2019-02-22T01:27:15.679Z,45.00
2019-02-22T01:28:15.668Z,41.40
2019-02-22T01:29:15.675Z,42.00
2019-02-22T01:30:15.670Z,45.40
2019-02-22T01:31:15.629Z,40.50
2019-02-22T01:32:15.625Z,46.30
2019-02-22T01:33:15.606Z,43.10
2019-02-22T01:34:15.614Z,41.30
2019-02-22T01:35:15.583Z,42.30
2019-02-22T01:36:15.572Z,45.00
2019-02-22T01:37:15.561Z,43.80
2019-02-22T01:38:15.550Z,44.70
2019-02-22T01:39:15.560Z,45.00
2019-02-22T01:40:15.529Z,44.90
2019-02-22T01:41:15.514Z,41.60
2019-02-22T01:42:15.503Z,42.10
2019-02-22T01:43:15.492Z,42.60
2019-02-22T01:44:15.480Z,42.80
2019-02-22T01:45:15.487Z,44.20
2019-02-22T01:46:15.457Z,45.50
2019-02-22T01:47:15.446Z,43.80
2019-02-22T01:48:15.435Z,41.70
2019-02-22T01:49:15.423Z,45.60
2019-02-22T01:50:15.431Z,43.30
2019-02-22T01:51:15.402Z,41.90
2019-02-22T01:52:15.387Z,44.20
2019-02-22T01:53:15.376Z,44.90
2019-02-22T01:54:15.367Z,45.20
2019-02-22T01:55:15.372Z,48.60
2019-02-22T01:56:15.342Z,45.20
2019-02-22T01:57:15.330Z,48.50
2019-02-22T01:58:15.320Z,48.10
2019-02-22T01:59:15.307Z,50.20
2019-02-22T02:00:15.321Z,50.40
2019-02-22T02:01:15.285Z,54.60
2019-02-22T02:02:15.271Z,51.90
2019-02-22T02:03:15.260Z,50.50
2019-02-22T02:04:15.253Z,54.70
2019-02-22T02:05:15.258Z,54.80
2019-02-22T02:06:15.231Z,52.90
2019-02-22T02:07:15.218Z,53.30
2019-02-22T02:08:15.204Z,50.50
2019-02-22T02:09:15.237Z,50.70
2019-02-22T02:10:15.212Z,54.00
2019-02-22T02:11:15.172Z,49.60
2019-02-22T02:12:15.158Z,55.30
2019-02-22T02:13:15.146Z,51.80
2019-02-22T02:14:15.136Z,55.20
2019-02-22T02:15:15.129Z,50.10
2019-02-22T02:16:15.135Z,50.30
2019-02-22T02:17:17.614Z,55.30
2019-02-22T02:18:15.093Z,51.50
2019-02-22T02:19:15.078Z,52.80
2019-02-22T02:20:15.422Z,51.60
2019-02-22T02:21:15.107Z,51.90
2019-02-22T02:22:15.050Z,56.70
2019-02-22T02:23:15.034Z,52.10
2019-02-22T02:24:15.023Z,53.60
2019-02-22T02:25:15.011Z,48.20
2019-02-22T02:26:15.017Z,50.30
2019-02-22T02:27:14.988Z,52.10
2019-02-22T02:28:14.979Z,54.20
2019-02-22T02:29:14.965Z,50.80
2019-02-22T02:30:14.954Z,52.00
2019-02-22T02:31:14.961Z,54.90
2019-02-22T02:32:14.935Z,55.20
2019-02-22T02:33:14.926Z,55.70
2019-02-22T02:34:14.910Z,54.00
2019-02-22T02:35:14.895Z,56.60
2019-02-22T02:36:14.905Z,56.80
2019-02-22T02:37:14.892Z,56.20
2019-02-22T02:38:14.862Z,55.40
2019-02-22T02:39:14.848Z,54.40
2019-02-22T02:40:14.841Z,54.40
2019-02-22T02:41:14.831Z,54.20
2019-02-22T02:42:14.834Z,57.40
2019-02-22T02:43:14.815Z,55.00
2019-02-22T02:44:14.793Z,60.10
2019-02-22T02:45:14.783Z,52.50
2019-02-22T02:46:14.771Z,58.00
2019-02-22T02:47:14.776Z,54.20
2019-02-22T02:48:14.764Z,54.30
2019-02-22T02:49:14.741Z,57.70
2019-02-22T02:50:14.727Z,54.90
2019-02-22T02:51:14.719Z,55.60
2019-02-22T02:52:14.728Z,53.70
2019-02-22T02:53:14.696Z,50.20
2019-02-22T02:54:14.678Z,50.90
2019-02-22T02:55:14.669Z,50.00
2019-02-22T02:56:14.665Z,53.80
2019-02-22T02:57:14.645Z,54.20
2019-02-22T02:58:14.655Z,56.50
2019-02-22T02:59:14.627Z,51.80
2019-02-22T03:00:14.614Z,53.90
2019-02-22T03:01:14.604Z,49.20
2019-02-22T03:02:14.594Z,50.40
2019-02-22T03:03:14.597Z,53.20
2019-02-22T03:04:14.563Z,50.90
2019-02-22T03:05:14.556Z,47.40
2019-02-22T03:06:14.552Z,51.80
2019-02-22T03:07:14.533Z,50.00
2019-02-22T03:08:14.538Z,51.70
2019-02-22T03:09:14.507Z,48.40
2019-02-22T03:10:14.522Z,51.20
2019-02-22T03:11:20.748Z,49.90
2019-02-22T03:12:15.477Z,50.50
2019-02-22T03:13:14.481Z,52.40
2019-02-22T03:14:14.449Z,58.10
2019-02-22T03:15:14.440Z,50.10
2019-02-22T03:16:14.436Z,49.00
2019-02-22T03:17:14.416Z,50.10
2019-02-22T03:18:14.425Z,51.40
2019-02-22T03:19:14.393Z,47.40
2019-02-22T03:20:14.382Z,47.50
2019-02-22T03:21:14.371Z,48.10
2019-02-22T03:22:14.364Z,45.80
2019-02-22T03:23:14.371Z,45.00
2019-02-22T03:24:14.340Z,44.90
2019-02-22T03:25:14.327Z,48.40
2019-02-22T03:26:14.316Z,45.50
2019-02-22T03:27:14.302Z,45.60
2019-02-22T03:28:14.313Z,49.00
2019-02-22T03:29:14.293Z,44.50
2019-02-22T03:30:14.281Z,48.10
2019-02-22T03:31:14.260Z,46.60
2019-02-22T03:32:14.270Z,47.90
2019-02-22T03:33:14.271Z,44.90
2019-02-22T03:34:14.224Z,43.50
2019-02-22T03:35:14.210Z,45.80
2019-02-22T03:36:14.199Z,42.10
2019-02-22T03:37:14.189Z,46.40
2019-02-22T03:38:14.178Z,44.70
2019-02-22T03:39:14.190Z,45.00
2019-02-22T03:40:14.154Z,44.00
2019-02-22T03:41:14.141Z,48.70
2019-02-22T03:42:14.130Z,48.90
2019-02-22T03:43:14.120Z,52.30
2019-02-22T03:44:14.129Z,47.00
2019-02-22T03:45:14.102Z,42.50
2019-02-22T03:46:14.085Z,44.20
2019-02-22T03:47:14.072Z,45.70
2019-02-22T03:48:14.064Z,46.30
2019-02-22T03:49:14.072Z,43.20
2019-02-22T03:50:14.041Z,49.60
2019-02-22T03:51:14.028Z,48.90
2019-02-22T03:52:14.018Z,51.70
2019-02-22T03:53:14.008Z,51.10
2019-02-22T03:54:14.016Z,45.80
2019-02-22T03:55:13.986Z,50.70
2019-02-22T03:56:13.975Z,48.70
2019-02-22T03:57:13.963Z,44.90
2019-02-22T03:58:13.948Z,47.20
2019-02-22T03:59:13.936Z,47.80
2019-02-22T04:00:13.942Z,45.00
2019-02-22T04:01:13.917Z,44.60
2019-02-22T04:02:13.905Z,44.10
2019-02-22T04:03:13.892Z,46.60
2019-02-22T04:04:13.889Z,47.30
2019-02-22T04:05:13.889Z,47.40
2019-02-22T04:06:13.859Z,46.70
2019-02-22T04:07:13.847Z,48.50
2019-02-22T04:08:13.835Z,42.90
2019-02-22T04:09:13.834Z,43.00
2019-02-22T04:10:13.831Z,45.60
2019-02-22T04:11:13.802Z,44.90
2019-02-22T04:12:13.787Z,41.90
2019-02-22T04:13:13.777Z,43.00
2019-02-22T04:14:13.769Z,44.20
2019-02-22T04:15:13.780Z,41.80
2019-02-22T04:16:13.743Z,43.30
2019-02-22T04:17:13.732Z,42.10
2019-02-22T04:18:13.719Z,45.20
2019-02-22T04:19:13.711Z,38.80
2019-02-22T04:20:13.712Z,41.70
2019-02-22T04:21:13.706Z,40.90
2019-02-22T04:22:13.672Z,38.60
2019-02-22T04:23:13.662Z,39.40
2019-02-22T04:24:13.652Z,41.50
2019-02-22T04:25:13.640Z,41.30
2019-02-22T04:26:13.645Z,40.60
2019-02-22T04:27:13.618Z,39.00
2019-02-22T04:28:13.620Z,40.20
2019-02-22T04:29:13.594Z,42.70
2019-02-22T04:30:13.734Z,41.40
2019-02-22T04:31:13.589Z,40.50
2019-02-22T04:32:13.564Z,40.30
2019-02-22T04:33:13.565Z,42.00
2019-02-22T04:34:13.535Z,38.80
2019-02-22T04:35:13.527Z,40.80
2019-02-22T04:36:13.534Z,40.50
2019-02-22T04:37:13.506Z,35.70
2019-02-22T04:38:13.490Z,39.00
2019-02-22T04:39:13.482Z,38.30
2019-02-22T04:40:13.470Z,34.00
2019-02-22T04:41:13.456Z,34.70
2019-02-22T04:42:13.465Z,35.40
2019-02-22T04:43:13.431Z,36.60
2019-02-22T04:44:13.420Z,36.60
2019-02-22T04:45:13.412Z,34.10
2019-02-22T04:46:13.416Z,35.30
2019-02-22T04:47:13.386Z,31.60
2019-02-22T04:48:13.381Z,30.80
2019-02-22T04:49:13.365Z,32.30
2019-02-22T04:50:13.362Z,35.10
2019-02-22T04:51:13.361Z,33.00
2019-02-22T04:52:13.332Z,33.00
2019-02-22T04:53:13.323Z,33.90
2019-02-22T04:54:13.309Z,33.80
2019-02-22T04:55:13.300Z,30.70
2019-02-22T04:56:13.307Z,33.70
2019-02-22T04:57:13.274Z,32.30
2019-02-22T04:58:13.263Z,34.70
2019-02-22T04:59:13.253Z,33.10
2019-02-22T05:00:13.238Z,32.20
2019-02-22T05:01:13.253Z,33.20
2019-02-22T05:02:13.213Z,31.30
2019-02-22T05:03:13.205Z,33.50
2019-02-22T05:04:13.194Z,32.00
2019-02-22T05:05:13.184Z,35.00
2019-02-22T05:06:13.193Z,34.60
2019-02-22T05:07:13.161Z,33.00
2019-02-22T05:08:13.146Z,32.30
2019-02-22T05:09:13.140Z,32.30
2019-02-22T05:10:13.125Z,31.90
2019-02-22T05:11:13.113Z,33.10
2019-02-22T05:12:13.123Z,36.20
2019-02-22T05:13:13.090Z,35.00
2019-02-22T05:14:13.080Z,39.00
2019-02-22T05:15:13.181Z,34.20
2019-02-22T05:16:13.056Z,33.20
2019-02-22T05:17:13.068Z,34.40
2019-02-22T05:18:13.034Z,32.40
2019-02-22T05:19:13.024Z,33.80
2019-02-22T05:20:13.010Z,30.90
2019-02-22T05:21:13.046Z,33.00
2019-02-22T05:22:13.006Z,35.40
2019-02-22T05:23:12.979Z,32.90
2019-02-22T05:24:12.973Z,33.40
2019-02-22T05:25:12.953Z,33.40
2019-02-22T05:26:12.942Z,34.00
2019-02-22T05:27:12.956Z,33.00
2019-02-22T05:28:12.922Z,33.00
2019-02-22T05:29:12.911Z,34.40
2019-02-22T05:30:12.899Z,32.60
2019-02-22T05:31:12.892Z,32.90
2019-02-22T05:32:12.872Z,33.40
2019-02-22T05:33:12.882Z,32.40
2019-02-22T05:34:12.857Z,34.00
2019-02-22T05:35:12.840Z,32.30
2019-02-22T05:36:12.828Z,31.70
2019-02-22T05:37:12.821Z,33.90
2019-02-22T05:38:12.824Z,35.20
2019-02-22T05:39:18.968Z,30.30
2019-02-22T05:40:13.781Z,32.60
2019-02-22T05:41:12.772Z,33.00
2019-02-22T05:42:22.468Z,32.50
2019-02-22T05:43:13.767Z,32.50
2019-02-22T05:44:12.736Z,32.80
2019-02-22T05:45:12.724Z,31.90
2019-02-22T05:46:12.712Z,31.90
2019-02-22T05:47:12.703Z,32.30
2019-02-22T05:48:12.714Z,34.00
2019-02-22T05:49:12.840Z,31.90
2019-02-22T05:50:12.669Z,31.90
2019-02-22T05:51:12.659Z,32.50
2019-02-22T05:52:12.645Z,32.80
2019-02-22T05:53:12.632Z,33.40
2019-02-22T05:54:12.642Z,31.00
2019-02-22T05:55:12.612Z,33.40
2019-02-22T05:56:12.603Z,31.20
2019-02-22T05:57:14.325Z,33.30
2019-02-22T05:58:12.579Z,30.70
2019-02-22T05:59:12.583Z,35.30
2019-02-22T06:00:12.554Z,33.20
2019-02-22T06:01:12.553Z,32.00
2019-02-22T06:02:14.579Z,31.40
2019-02-22T06:03:12.520Z,30.70
2019-02-22T06:04:12.528Z,31.60
2019-02-22T06:05:12.495Z,32.40
2019-02-22T06:06:12.488Z,30.90
2019-02-22T06:07:14.579Z,32.80
2019-02-22T06:08:12.469Z,33.60
2019-02-22T06:09:12.469Z,34.40
2019-02-22T06:10:12.441Z,31.60
2019-02-22T06:11:12.449Z,34.80
2019-02-22T06:12:12.414Z,32.90
2019-02-22T06:13:12.403Z,31.20
2019-02-22T06:14:12.415Z,34.70
2019-02-22T06:15:12.383Z,34.50
2019-02-22T06:16:12.372Z,31.80
2019-02-22T06:17:14.814Z,33.40
2019-02-22T06:18:12.348Z,35.40
2019-02-22T06:19:12.337Z,30.70
2019-02-22T06:20:12.345Z,32.10
2019-02-22T06:21:14.567Z,36.20
2019-02-22T06:22:12.304Z,34.60
2019-02-22T06:23:12.293Z,83.60
2019-02-22T06:24:12.279Z,35.20
2019-02-22T06:25:12.297Z,33.10
2019-02-22T06:26:12.254Z,31.90
2019-02-22T06:27:12.246Z,35.40
2019-02-22T06:28:12.242Z,32.20
2019-02-22T06:29:12.221Z,33.60
2019-02-22T06:30:12.226Z,35.40
2019-02-22T06:31:12.204Z,35.80
2019-02-22T06:32:12.191Z,36.40
2019-02-22T06:33:12.177Z,33.80
2019-02-22T06:34:12.166Z,33.30
2019-02-22T06:35:12.192Z,33.40
2019-02-22T06:36:12.142Z,36.00
2019-02-22T06:37:12.128Z,36.00
2019-02-22T06:38:12.118Z,31.90
2019-02-22T06:39:12.110Z,37.60
2019-02-22T06:40:12.096Z,33.20
2019-02-22T06:41:12.101Z,33.70
2019-02-22T06:42:12.072Z,36.60
2019-02-22T06:43:12.061Z,38.60
2019-02-22T06:44:12.092Z,37.40
2019-02-22T06:45:12.038Z,36.20
2019-02-22T06:46:12.047Z,38.50
2019-02-22T06:47:12.017Z,36.90
2019-02-22T06:48:12.009Z,39.50
2019-02-22T06:49:11.996Z,36.60
2019-02-22T06:50:11.978Z,37.70
2019-02-22T06:51:11.991Z,37.50
2019-02-22T06:52:11.957Z,38.30
2019-02-22T06:53:11.945Z,152.30
2019-02-22T06:54:11.934Z,44.70
2019-02-22T06:55:11.923Z,37.80
2019-02-22T06:56:11.911Z,38.80
2019-02-22T06:57:11.918Z,39.00
2019-02-22T06:58:11.922Z,35.60
2019-02-22T06:59:11.876Z,34.20
2019-02-22T07:00:11.869Z,34.70
2019-02-22T07:01:11.854Z,38.30
2019-02-22T07:02:11.860Z,35.40
2019-02-22T07:03:11.831Z,35.80
2019-02-22T07:04:11.819Z,38.10
2019-02-22T07:05:11.810Z,36.40
2019-02-22T07:06:11.797Z,34.10
2019-02-22T07:07:11.804Z,36.10
2019-02-22T07:08:11.773Z,33.90
2019-02-22T07:09:11.760Z,33.10
2019-02-22T07:10:11.751Z,35.70
2019-02-22T07:11:11.741Z,35.10
2019-02-22T07:12:11.749Z,38.90
2019-02-22T07:13:11.717Z,36.90
2019-02-22T07:14:11.705Z,35.00
2019-02-22T07:15:11.697Z,33.40
2019-02-22T07:16:11.686Z,31.60
2019-02-22T07:17:11.690Z,34.40
2019-02-22T07:18:11.658Z,32.30
2019-02-22T07:19:11.649Z,30.00
2019-02-22T07:20:11.638Z,34.70
2019-02-22T07:21:11.626Z,31.50
2019-02-22T07:22:11.632Z,31.70
2019-02-22T07:23:11.603Z,33.60
2019-02-22T07:24:11.592Z,33.30
2019-02-22T07:25:11.580Z,35.20
2019-02-22T07:26:11.570Z,35.60
2019-02-22T07:27:11.576Z,34.00
2019-02-22T07:28:11.547Z,31.70
2019-02-22T07:29:11.535Z,37.00
2019-02-22T07:30:11.539Z,35.90
2019-02-22T07:31:11.510Z,35.20
2019-02-22T07:32:11.525Z,31.50
2019-02-22T07:33:11.489Z,35.50
2019-02-22T07:34:11.478Z,33.60
2019-02-22T07:35:14.042Z,34.60
2019-02-22T07:36:11.456Z,33.80
2019-02-22T07:37:11.449Z,30.70
2019-02-22T07:38:11.453Z,31.20
2019-02-22T07:39:11.423Z,32.50
2019-02-22T07:40:11.409Z,33.20
2019-02-22T07:41:11.399Z,33.60
2019-02-22T07:42:11.384Z,37.60
2019-02-22T07:43:11.398Z,35.60
2019-02-22T07:44:11.365Z,35.60
2019-02-22T07:45:11.353Z,35.30
2019-02-22T07:46:11.341Z,32.60
2019-02-22T07:47:11.336Z,34.40
2019-02-22T07:48:11.361Z,30.90
2019-02-22T07:49:11.306Z,34.00
2019-02-22T07:50:11.381Z,31.30
2019-02-22T07:51:11.305Z,32.20
2019-02-22T07:52:11.271Z,29.50
2019-02-22T07:53:11.257Z,29.30
2019-02-22T07:54:11.273Z,32.20
2019-02-22T07:55:11.234Z,32.60
2019-02-22T07:56:11.278Z,30.30
2019-02-22T07:57:11.215Z,32.70
2019-02-22T07:58:11.203Z,31.00
2019-02-22T07:59:11.208Z,32.00
2019-02-22T08:00:11.176Z,31.70
2019-02-22T08:01:11.166Z,36.00
2019-02-22T08:02:11.153Z,32.50
2019-02-22T08:03:11.142Z,32.30
2019-02-22T08:04:11.170Z,34.60
2019-02-22T08:05:11.120Z,34.20
2019-02-22T08:06:11.107Z,36.60
2019-02-22T08:07:11.094Z,35.90
2019-02-22T08:08:11.082Z,36.80
2019-02-22T08:09:11.071Z,33.40
2019-02-22T08:10:11.077Z,35.30
2019-02-22T08:11:11.049Z,32.50
2019-02-22T08:12:11.036Z,32.10
2019-02-22T08:13:19.104Z,31.20
2019-02-22T08:14:12.013Z,31.00
2019-02-22T08:15:11.054Z,33.90
2019-02-22T08:16:10.998Z,29.60
2019-02-22T08:17:10.977Z,28.60
2019-02-22T08:18:10.972Z,28.30
2019-02-22T08:19:11.354Z,27.40
2019-02-22T08:20:10.960Z,28.30
2019-02-22T08:21:10.932Z,28.10
2019-02-22T08:22:10.919Z,28.50
2019-02-22T08:23:10.908Z,26.90
2019-02-22T08:24:10.898Z,24.50
2019-02-22T08:25:10.903Z,27.20
2019-02-22T08:26:10.874Z,27.10
2019-02-22T08:27:10.863Z,27.20
2019-02-22T08:28:10.851Z,27.40
2019-02-22T08:29:10.839Z,28.70
2019-02-22T08:30:10.846Z,28.90
2019-02-22T08:31:10.814Z,27.70
2019-02-22T08:32:10.805Z,25.80
2019-02-22T08:33:10.796Z,27.30
2019-02-22T08:34:10.780Z,25.70
2019-02-22T08:35:10.789Z,26.90
2019-02-22T08:36:10.760Z,27.20
2019-02-22T08:37:10.747Z,29.60
2019-02-22T08:38:10.731Z,28.80
2019-02-22T08:39:10.720Z,28.20
2019-02-22T08:40:10.732Z,31.40
2019-02-22T08:41:10.697Z,29.70
2019-02-22T08:42:10.690Z,27.40
2019-02-22T08:43:10.677Z,28.00
2019-02-22T08:44:10.666Z,29.70
2019-02-22T08:45:10.771Z,28.70
2019-02-22T08:46:10.639Z,27.80
2019-02-22T08:47:10.628Z,28.00
2019-02-22T08:48:10.621Z,26.20
2019-02-22T08:49:10.607Z,25.70
2019-02-22T08:50:10.594Z,26.50
2019-02-22T08:51:10.600Z,28.00
2019-02-22T08:52:10.571Z,26.80
2019-02-22T08:53:10.557Z,24.60
2019-02-22T08:54:10.546Z,24.40
2019-02-22T08:55:10.545Z,22.60
2019-02-22T08:56:10.540Z,24.10
2019-02-22T08:57:10.513Z,25.20
2019-02-22T08:58:10.500Z,22.40
2019-02-22T08:59:10.493Z,22.70
2019-02-22T09:00:10.480Z,21.20
2019-02-22T09:01:10.488Z,20.00
2019-02-22T09:02:10.452Z,21.40
2019-02-22T09:03:10.440Z,20.50
2019-02-22T09:04:10.430Z,20.50
2019-02-22T09:05:10.422Z,36.80
2019-02-22T09:06:10.412Z,38.50
2019-02-22T09:07:10.413Z,21.00
2019-02-22T09:08:10.387Z,19.80
2019-02-22T09:09:10.384Z,18.50
2019-02-22T09:10:10.370Z,20.30
2019-02-22T09:11:10.354Z,18.10
2019-02-22T09:12:10.354Z,18.00
2019-02-22T09:13:10.326Z,19.40
2019-02-22T09:14:10.316Z,16.60
2019-02-22T09:15:10.306Z,18.00
2019-02-22T09:16:10.290Z,15.90
2019-02-22T09:17:10.299Z,17.60
2019-02-22T09:18:10.268Z,18.60
2019-02-22T09:19:10.254Z,16.90
2019-02-22T09:20:10.245Z,17.70
2019-02-22T09:21:10.231Z,16.30
2019-02-22T09:22:19.682Z,17.00
2019-02-22T09:23:11.210Z,16.60
2019-02-22T09:24:10.197Z,16.30
2019-02-22T09:25:10.187Z,16.90
2019-02-22T09:26:10.177Z,16.10
2019-02-22T09:27:10.162Z,16.60
2019-02-22T09:28:10.179Z,16.90
2019-02-22T09:29:10.139Z,16.60
2019-02-22T09:30:10.130Z,15.60
2019-02-22T09:31:10.117Z,17.20
2019-02-22T09:32:10.106Z,14.90
2019-02-22T09:33:10.111Z,15.50
2019-02-22T09:34:10.084Z,18.30
2019-02-22T09:35:10.070Z,15.70
2019-02-22T09:36:10.061Z,15.30
2019-02-22T09:37:10.057Z,14.00
2019-02-22T09:38:10.057Z,15.80
2019-02-22T09:39:10.026Z,14.40
2019-02-22T09:40:10.015Z,15.40
2019-02-22T09:41:10.002Z,14.30
2019-02-22T09:42:09.992Z,15.00
2019-02-22T09:43:10.006Z,13.50
2019-02-22T09:44:09.967Z,14.70
2019-02-22T09:45:09.955Z,12.00
2019-02-22T09:46:09.943Z,13.10
2019-02-22T09:47:09.931Z,14.00
2019-02-22T09:48:09.942Z,13.30
2019-02-22T09:49:09.909Z,12.20
2019-02-22T09:50:09.896Z,12.30
2019-02-22T09:51:09.885Z,12.40
2019-02-22T09:52:09.875Z,11.10
2019-02-22T09:53:09.883Z,10.70
2019-02-22T09:54:09.854Z,11.90
2019-02-22T09:55:09.849Z,11.30
2019-02-22T09:56:09.829Z,10.10
2019-02-22T09:57:09.821Z,10.30
2019-02-22T09:58:09.831Z,10.40
2019-02-22T09:59:09.794Z,10.50
2019-02-22T10:00:09.788Z,10.60
2019-02-22T10:01:09.771Z,10.40
2019-02-22T10:02:09.780Z,9.20
2019-02-22T10:03:09.749Z,10.00
2019-02-22T10:04:09.757Z,8.60
2019-02-22T10:05:09.728Z,9.50
2019-02-22T10:06:09.714Z,9.30
2019-02-22T10:07:09.703Z,10.20
2019-02-22T10:08:09.719Z,10.40
2019-02-22T10:09:09.680Z,9.80
2019-02-22T10:10:09.670Z,10.10
2019-02-22T10:11:09.659Z,10.30
2019-02-22T10:12:09.649Z,11.20
2019-02-22T10:13:09.637Z,10.50
2019-02-22T10:14:09.649Z,10.30
2019-02-22T10:15:09.615Z,10.50
2019-02-22T10:16:09.604Z,10.60
2019-02-22T10:17:09.592Z,10.70
2019-02-22T10:18:09.591Z,10.00
2019-02-22T10:19:09.592Z,9.50
2019-02-22T10:20:09.557Z,8.90
2019-02-22T10:21:09.547Z,9.80
2019-02-22T10:22:09.540Z,9.60
2019-02-22T10:23:09.553Z,10.60
2019-02-22T10:24:09.528Z,12.20
2019-02-22T10:25:09.500Z,10.80
2019-02-22T10:26:09.486Z,11.90
2019-02-22T10:27:12.004Z,9.60
2019-02-22T10:28:17.230Z,11.00
2019-02-22T10:29:10.472Z,11.00
2019-02-22T10:30:09.442Z,11.20
2019-02-22T10:31:09.431Z,10.90
2019-02-22T10:32:09.421Z,10.20
2019-02-22T10:33:09.406Z,11.50
2019-02-22T10:34:09.398Z,11.00
2019-02-22T10:35:09.403Z,10.00
2019-02-22T10:36:09.374Z,12.60
2019-02-22T10:37:09.362Z,10.50
2019-02-22T10:38:09.352Z,10.40
2019-02-22T10:39:09.340Z,10.80
2019-02-22T10:40:09.348Z,10.40
2019-02-22T10:41:09.316Z,9.20
2019-02-22T10:42:09.303Z,9.70
2019-02-22T10:43:09.292Z,10.90
2019-02-22T10:44:17.420Z,10.20
2019-02-22T10:45:10.590Z,9.50
2019-02-22T10:46:09.256Z,9.70
2019-02-22T10:47:09.245Z,10.40
2019-02-22T10:48:09.235Z,10.30
2019-02-22T10:49:09.221Z,10.10
2019-02-22T10:50:09.215Z,9.00
2019-02-22T10:51:09.219Z,9.90
2019-02-22T10:52:09.187Z,10.20
2019-02-22T10:53:09.174Z,9.90
2019-02-22T10:54:09.163Z,9.30
2019-02-22T10:55:09.154Z,9.80
2019-02-22T10:56:09.159Z,8.20
2019-02-22T10:57:09.127Z,7.90
2019-02-22T10:58:09.118Z,7.90
2019-02-22T10:59:09.108Z,8.10
2019-02-22T11:00:09.094Z,7.90
2019-02-22T11:01:09.109Z,7.20
2019-02-22T11:02:09.077Z,6.00
2019-02-22T11:03:09.060Z,7.30
2019-02-22T11:04:09.052Z,6.70
2019-02-22T11:05:09.044Z,7.40
2019-02-22T11:06:09.068Z,6.80
2019-02-22T11:07:09.023Z,6.50
2019-02-22T11:08:09.010Z,7.20
2019-02-22T11:09:08.999Z,6.60
2019-02-22T11:10:08.982Z,6.80
2019-02-22T11:11:08.972Z,7.20
2019-02-22T11:12:08.976Z,7.60
2019-02-22T11:13:08.947Z,7.80
2019-02-22T11:14:08.936Z,7.10
2019-02-22T11:15:08.925Z,9.70
2019-02-22T11:16:08.932Z,8.80
2019-02-22T11:17:08.906Z,7.60
2019-02-22T11:18:08.893Z,6.70
2019-02-22T11:19:08.879Z,8.50
2019-02-22T11:20:08.867Z,7.60
2019-02-22T11:21:08.875Z,7.30
2019-02-22T11:22:08.846Z,8.60
2019-02-22T11:23:08.834Z,8.20
2019-02-22T11:24:08.824Z,8.80
2019-02-22T11:25:08.812Z,9.40
2019-02-22T11:26:08.818Z,8.40
2019-02-22T11:27:08.787Z,61.50
2019-02-22T11:28:08.776Z,8.70
2019-02-22T11:29:08.769Z,9.50
2019-02-22T11:30:08.755Z,8.90
2019-02-22T11:31:08.791Z,10.10
2019-02-22T11:32:08.733Z,13.30
2019-02-22T11:33:08.723Z,12.00
2019-02-22T11:34:08.710Z,10.80
2019-02-22T11:35:08.701Z,11.50
2019-02-22T11:36:08.684Z,11.60
2019-02-22T11:37:08.695Z,11.60
2019-02-22T11:38:08.659Z,11.90
2019-02-22T11:39:08.649Z,11.90
2019-02-22T11:40:08.637Z,11.10
2019-02-22T11:41:08.625Z,13.20
2019-02-22T11:42:08.633Z,12.60
2019-02-22T11:43:08.608Z,13.30
2019-02-22T11:44:08.591Z,11.80
2019-02-22T11:45:08.602Z,13.10
2019-02-22T11:46:08.568Z,13.10
2019-02-22T11:47:08.583Z,14.40
2019-02-22T11:48:09.525Z,14.30
2019-02-22T11:49:08.534Z,14.70
2019-02-22T11:50:08.523Z,15.00
2019-02-22T11:51:08.601Z,13.10
2019-02-22T11:52:08.511Z,14.80
2019-02-22T11:53:08.508Z,14.20
2019-02-22T11:54:08.476Z,15.50
2019-02-22T11:55:08.470Z,16.30
2019-02-22T11:56:08.453Z,16.40
2019-02-22T11:57:08.450Z,14.90
2019-02-22T11:58:08.448Z,16.30
2019-02-22T11:59:08.431Z,15.10
2019-02-22T12:00:08.412Z,15.80
2019-02-22T12:01:08.408Z,17.20
2019-02-22T12:02:08.386Z,17.50
2019-02-22T12:03:21.239Z,17.20
2019-02-22T12:04:09.361Z,16.90
2019-02-22T12:05:08.350Z,17.60
2019-02-22T12:06:08.337Z,17.20
2019-02-22T12:07:08.337Z,15.80
2019-02-22T12:08:08.316Z,14.60
2019-02-22T12:09:08.323Z,14.50
2019-02-22T12:10:08.294Z,13.50
2019-02-22T12:11:08.283Z,12.90
2019-02-22T12:12:08.269Z,13.70
2019-02-22T12:13:08.266Z,13.50
2019-02-22T12:14:08.264Z,12.70
2019-02-22T12:15:08.231Z,13.60
2019-02-22T12:16:08.222Z,14.30
2019-02-22T12:17:08.209Z,12.20
2019-02-22T12:18:08.200Z,12.00
2019-02-22T12:19:08.207Z,9.80
2019-02-22T12:20:08.175Z,10.20
2019-02-22T12:21:08.167Z,11.00
2019-02-22T12:22:08.154Z,10.70
2019-02-22T12:23:08.143Z,11.80
2019-02-22T12:24:08.261Z,10.40
2019-02-22T12:25:08.120Z,10.90
2019-02-22T12:26:08.151Z,10.90
2019-02-22T12:27:08.093Z,10.30
2019-02-22T12:28:08.083Z,9.50
2019-02-22T12:29:08.088Z,9.40
2019-02-22T12:30:08.059Z,11.60
2019-02-22T12:31:08.048Z,11.00
2019-02-22T12:32:08.165Z,11.30
2019-02-22T12:33:08.023Z,11.80
2019-02-22T12:34:08.031Z,11.00
2019-02-22T12:35:08.003Z,10.20
2019-02-22T12:36:09.634Z,11.50
2019-02-22T12:37:08.020Z,12.00
2019-02-22T12:38:07.966Z,12.40
2019-02-22T12:39:07.976Z,11.90
2019-02-22T12:40:07.945Z,11.40
2019-02-22T12:41:07.933Z,13.70
2019-02-22T12:42:07.921Z,12.60
2019-02-22T12:43:07.908Z,56.30
2019-02-22T12:44:07.936Z,127.70
2019-02-22T12:45:07.884Z,18.80
2019-02-22T12:46:07.872Z,13.50
2019-02-22T12:47:07.890Z,12.30
2019-02-22T12:48:07.858Z,12.00
2019-02-22T12:49:07.837Z,11.70
2019-02-22T12:50:07.843Z,12.00
2019-02-22T12:51:07.813Z,11.30
2019-02-22T12:52:07.804Z,11.70
2019-02-22T12:53:07.791Z,10.80
2019-02-22T12:54:07.777Z,11.80